Time;durP1;ratioP1;P1;durP2;ratioP2;P2;SDS_P1;SDS_P2;PMS_P1;PMS_P2;Temp;Humidity;BMP_temperature;BMP_pressure;BME280_temperature;BME280_humidity;BME280_pressure;Samples;Min_cycle;Max_cycle;Signal;HPM_P1;HPM_P2
2024/04/07 00:01:40;;;;;;;6.85;3.40;;;;;;;16.08;100.00;98760.47;5012668;28;20117;-73
2024/04/07 00:04:06;;;;;;;5.95;3.03;;;;;;;15.84;100.00;98714.31;5030741;28;20056;-74
2024/04/07 00:06:33;;;;;;;5.95;3.35;;;;;;;15.49;100.00;98652.69;5030142;28;20033;-73
2024/04/07 00:08:59;;;;;;;5.32;3.20;;;;;;;15.85;100.00;98581.81;5030913;28;20074;-73
2024/04/07 00:11:24;;;;;;;4.50;3.38;;;;;;;15.91;100.00;98627.53;5013269;28;20033;-73
2024/04/07 00:13:51;;;;;;;5.75;3.35;;;;;;;15.54;100.00;98549.91;5030998;28;20465;-73
2024/04/07 00:16:17;;;;;;;6.63;3.58;;;;;;;15.89;100.00;98622.50;5031510;28;20415;-74
2024/04/07 00:18:43;;;;;;;4.20;3.03;;;;;;;15.78;100.00;98496.91;5031450;28;20117;-74
2024/04/07 00:21:09;;;;;;;5.43;3.42;;;;;;;16.03;100.00;98606.13;5013323;28;20037;-73
2024/04/07 00:23:34;;;;;;;4.28;3.28;;;;;;;15.65;100.00;98651.63;5031024;28;20488;-73
2024/04/07 00:25:59;;;;;;;5.40;3.17;;;;;;;16.01;100.00;98669.50;5012185;28;20034;-73
2024/04/07 00:28:26;;;;;;;4.30;3.40;;;;;;;15.73;100.00;98731.34;5030355;28;20105;-73
2024/04/07 00:30:51;;;;;;;5.22;3.55;;;;;;;15.44;100.00;98803.31;5031275;28;20480;-74
2024/04/07 00:33:16;;;;;;;8.43;3.55;;;;;;;16.25;100.00;98984.06;5013468;28;20061;-73
2024/04/07 00:35:58;;;;;;;4.38;3.22;;;;;;;16.00;100.00;99135.31;5030853;28;20076;-73
2024/04/07 00:38:24;;;;;;;6.28;3.33;;;;;;;16.10;100.00;99279.16;5012921;28;20030;-73
2024/04/07 00:40:53;;;;;;;4.55;3.10;;;;;;;15.89;100.00;99299.22;5031168;28;20087;-73
2024/04/07 00:43:19;;;;;;;5.43;3.10;;;;;;;16.43;100.00;99446.41;5031297;28;20060;-73
2024/04/07 00:45:45;;;;;;;3.95;2.92;;;;;;;15.94;100.00;99445.09;5030206;28;20033;-73
2024/04/07 00:48:11;;;;;;;3.75;2.78;;;;;;;16.16;100.00;99473.72;5012422;28;20494;-72
2024/04/07 00:50:36;;;;;;;4.97;3.25;;;;;;;16.43;100.00;99549.88;5012851;28;20029;-73
2024/04/07 00:53:02;;;;;;;6.13;3.70;;;;;;;15.96;100.00;99580.00;5013146;28;20030;-73
2024/04/07 00:55:29;;;;;;;6.82;3.75;;;;;;;15.53;100.00;99637.06;5030178;28;20124;-73
2024/04/07 00:57:55;;;;;;;6.57;3.30;;;;;;;15.58;100.00;99664.13;5012672;28;20064;-73
2024/04/07 01:00:20;;;;;;;5.60;3.35;;;;;;;15.47;100.00;99569.06;5030039;28;20029;-72
2024/04/07 01:02:46;;;;;;;6.50;3.17;;;;;;;15.04;100.00;99577.34;5030243;28;20029;-72
2024/04/07 01:05:11;;;;;;;6.90;3.58;;;;;;;15.93;100.00;99776.75;5012494;28;20041;-72
2024/04/07 01:07:37;;;;;;;6.78;3.22;;;;;;;15.24;100.00;99753.84;5012781;28;20036;-72
2024/04/07 01:10:05;;;;;;;5.53;3.10;;;;;;;15.65;100.00;99815.81;5029817;28;20033;-73
2024/04/07 01:12:31;;;;;;;6.68;3.70;;;;;;;15.69;100.00;99763.50;5012009;28;20041;-73
2024/04/07 01:14:56;;;;;;;6.70;3.53;;;;;;;15.07;100.00;99615.63;5030340;28;20038;-73
2024/04/07 01:17:21;;;;;;;7.63;3.20;;;;;;;15.26;100.00;99643.63;5029804;28;20112;-73
2024/04/07 01:19:49;;;;;;;7.40;3.80;;;;;;;15.12;100.00;99521.44;5030580;28;20040;-73
2024/04/07 01:22:18;;;;;;;5.97;3.20;;;;;;;15.42;100.00;99414.78;5012905;28;20075;-73
2024/04/07 01:24:44;;;;;;;6.10;3.30;;;;;;;14.96;100.00;98908.03;5030150;28;20032;-73
2024/04/07 01:27:09;;;;;;;6.88;3.45;;;;;;;14.92;100.00;98456.19;5029874;28;20030;-73
2024/04/07 01:29:34;;;;;;;7.53;3.42;;;;;;;15.38;100.00;98081.53;5029578;28;20033;-73
2024/04/07 01:32:00;;;;;;;4.70;3.10;;;;;;;15.33;100.00;97658.63;5012053;28;20124;-72
2024/04/07 01:34:29;;;;;;;5.30;3.45;;;;;;;15.41;100.00;97248.38;5011954;28;20037;-72
2024/04/07 01:36:55;;;;;;;6.10;3.55;;;;;;;15.66;100.00;96917.38;5028611;28;20470;-72
2024/04/07 01:39:21;;;;;;;6.13;3.53;;;;;;;15.36;100.00;96751.38;5029917;28;20026;-72
2024/04/07 01:41:46;;;;;;;6.32;3.33;;;;;;;15.30;100.00;96624.03;5029307;28;20156;-73
2024/04/07 01:44:12;;;;;;;5.18;3.90;;;;;;;14.53;100.00;96348.91;5028921;28;20042;-72
2024/04/07 01:46:37;;;;;;;5.15;3.60;;;;;;;14.81;100.00;96384.41;5029191;28;20083;-72
2024/04/07 01:49:03;;;;;;;5.35;3.70;;;;;;;14.84;100.00;96643.16;5029128;28;20041;-72
2024/04/07 01:51:28;;;;;;;5.18;3.15;;;;;;;15.06;100.00;96442.31;5029064;28;21024;-73
2024/04/07 01:53:53;;;;;;;4.20;3.50;;;;;;;14.85;100.00;95979.16;5029493;28;20029;-74
2024/04/07 01:56:19;;;;;;;4.28;3.38;;;;;;;14.54;100.00;96174.16;5029737;28;20041;-74
2024/04/07 01:58:44;;;;;;;5.88;3.40;;;;;;;14.75;100.00;97511.78;5029370;28;20053;-74
2024/04/07 02:01:10;;;;;;;7.57;3.50;;;;;;;15.44;100.00;98278.28;5028367;28;20029;-73
2024/04/07 02:03:35;;;;;;;4.95;3.97;;;;;;;14.97;100.00;99873.00;5029502;28;20124;-73
2024/04/07 02:06:00;;;;;;;4.90;3.45;;;;;;;14.70;100.00;99940.81;5030116;28;20071;-73
2024/04/07 02:08:26;;;;;;;5.32;3.28;;;;;;;15.24;100.00;101009.06;5029223;28;20105;-74
2024/04/07 02:10:52;;;;;;;6.20;3.38;;;;;;;14.63;100.00;100461.47;5029177;28;20036;-73
2024/04/07 02:13:18;;;;;;;4.20;3.45;;;;;;;14.90;100.00;100593.56;5011534;28;20104;-73
2024/04/07 02:15:43;;;;;;;4.70;3.30;;;;;;;15.34;100.00;100964.34;5028974;28;20032;-74
2024/04/07 02:18:09;;;;;;;5.47;4.10;;;;;;;15.45;100.00;101423.66;5017702;28;20038;-72
2024/04/07 02:20:34;;;;;;;5.90;3.42;;;;;;;15.36;100.00;102094.56;5028078;28;20082;-73
2024/04/07 02:23:00;;;;;;;4.78;3.30;;;;;;;15.54;100.00;102173.84;5010430;28;20036;-73
2024/04/07 02:25:26;;;;;;;5.13;3.67;;;;;;;15.21;100.00;102305.75;5029917;28;20407;-75
2024/04/07 02:27:51;;;;;;;5.57;3.20;;;;;;;14.67;100.00;102143.22;5030018;28;20041;-74
2024/04/07 02:30:17;;;;;;;3.90;3.40;;;;;;;14.86;100.00;102276.19;5028896;28;20037;-73
2024/04/07 02:32:42;;;;;;;4.57;3.60;;;;;;;14.69;100.00;102415.50;5010565;28;20044;-73
2024/04/07 02:35:13;;;;;;;4.70;3.50;;;;;;;15.22;100.00;102556.09;5028789;28;20029;-74
2024/04/07 02:37:38;;;;;;;4.93;3.35;;;;;;;15.14;100.00;108596.03;5027820;28;20029;-75
2024/04/07 02:40:08;;;;;;;3.92;3.15;;;;;;;15.01;100.00;108173.84;5029008;28;20036;-72
2024/04/07 02:42:33;;;;;;;5.88;3.30;;;;;;;14.79;100.00;108617.53;5027603;28;20030;-72
2024/04/07 02:50:26;;;;;;;5.35;3.53;;;;;;;15.53;100.00;110586.03;5030301;28;20041;-70
2024/04/07 02:52:51;;;;;;;5.55;3.47;;;;;;;15.14;100.00;109520.38;5030046;28;20022;-71
2024/04/07 02:55:17;;;;;;;6.40;3.50;;;;;;;15.53;100.00;109670.16;5030570;28;20067;-73
2024/04/07 02:57:43;;;;;;;4.65;3.70;;;;;;;15.61;100.00;110101.13;5030243;28;20053;-71
2024/04/07 03:00:13;;;;;;;6.70;3.53;;;;;;;15.39;100.00;110274.13;5031393;28;20041;-71
2024/04/07 03:02:43;;;;;;;6.20;4.10;;;;;;;14.91;100.00;110199.91;5015332;28;20033;-71
2024/04/07 03:05:08;;;;;;;6.18;3.40;;;;;;;15.37;100.00;110325.31;5031782;28;20037;-71
2024/04/07 03:07:35;;;;;;;4.28;3.88;;;;;;;15.10;100.00;110598.50;5030897;28;20128;-74
2024/04/07 03:10:00;;;;;;;5.20;3.85;;;;;;;14.73;100.00;110459.53;5030582;28;20037;-72
2024/04/07 03:12:27;;;;;;;5.47;4.13;;;;;;;15.31;100.00;111086.84;5031510;28;20102;-70
2024/04/07 03:15:03;;;;;;;5.18;4.00;;;;;;;15.38;100.00;111802.41;5031026;28;20512;-73
2024/04/07 03:17:30;;;;;;;6.53;4.20;;;;;;;15.36;100.00;112126.78;5031424;28;20060;-71
2024/04/07 03:19:56;;;;;;;5.70;3.65;;;;;;;15.40;100.00;113060.88;5031988;28;20468;-76
2024/04/07 03:22:22;;;;;;;5.40;4.18;;;;;;;14.95;100.00;112351.91;5031148;28;20545;-71
2024/04/07 03:24:48;;;;;;;8.18;3.10;;;;;;;16.29;100.00;113015.25;5015413;28;20029;-77
2024/04/07 03:27:18;;;;;;;4.50;3.13;;;;;;;15.79;100.00;112881.13;5015101;28;20033;-74
2024/04/07 03:29:44;;;;;;;4.25;3.45;;;;;;;15.94;100.00;112899.00;5030651;28;20036;-75
2024/04/07 03:32:09;;;;;;;5.95;4.32;;;;;;;15.74;100.00;112830.59;5032119;28;20104;-70
2024/04/07 03:34:34;;;;;;;5.13;3.53;;;;;;;15.30;100.00;112792.66;5031601;28;20401;-70
2024/04/07 03:37:00;;;;;;;6.80;3.58;;;;;;;14.91;100.00;112867.59;5031635;28;20021;-71
2024/04/07 03:39:25;;;;;;;4.57;4.18;;;;;;;15.12;100.00;113061.25;5031475;28;20392;-70
2024/04/07 03:41:51;;;;;;;5.60;4.07;;;;;;;15.13;100.00;111993.97;5031201;28;20029;-70
2024/04/07 03:44:18;;;;;;;5.53;3.90;;;;;;;15.23;100.00;117039.25;5031471;28;20029;-70
2024/04/07 03:46:46;;;;;;;5.45;4.60;;;;;;;15.36;100.00;114931.03;5031165;28;20411;-70
2024/04/07 03:49:11;;;;;;;5.30;4.63;;;;;;;15.08;100.00;117176.31;5030942;28;20033;-71
2024/04/07 03:51:37;;;;;;;7.90;5.00;;;;;;;15.22;100.00;117605.19;5031462;28;20033;-77
2024/04/07 03:54:03;;;;;;;5.88;5.20;;;;;;;14.59;100.00;117360.44;5031563;28;20108;-70
2024/04/07 03:56:30;;;;;;;5.82;5.03;;;;;;;14.85;100.00;117877.50;5013352;28;20041;-71
2024/04/07 03:58:56;;;;;;;6.78;5.30;;;;;;;14.86;100.00;117578.44;4992290;28;20040;-71
2024/04/07 04:01:22;;;;;;;8.07;5.45;;;;;;;14.44;100.00;114773.19;4991665;28;20030;-70
2024/04/07 04:03:48;;;;;;;7.03;5.15;;;;;;;15.10;100.00;111862.47;4991811;28;20061;-71
2024/04/07 04:06:14;;;;;;;7.20;5.07;;;;;;;15.13;100.00;112138.78;4991833;28;20081;-71
2024/04/07 04:08:40;;;;;;;6.05;5.28;;;;;;;15.11;100.00;112523.16;4992352;28;20444;-70
2024/04/07 04:11:06;;;;;;;7.07;5.00;;;;;;;14.92;100.00;112186.03;4991614;28;20036;-70
2024/04/07 04:13:35;;;;;;;7.38;5.38;;;;;;;15.09;100.00;112311.25;4991575;28;20030;-75
2024/04/07 04:16:00;;;;;;;6.05;5.45;;;;;;;-140.33;100.00;61596.09;4992338;28;20038;-71
2024/04/07 04:18:27;;;;;;;6.32;5.43;;;;;;;-140.33;100.00;61596.09;4989992;28;20030;-71
2024/04/07 04:20:52;;;;;;;8.63;6.97;;;;;;;-140.33;100.00;61596.09;4991817;28;20453;-70
2024/04/07 04:23:17;;;;;;;6.80;6.10;;;;;;;-140.33;100.00;61596.09;4990810;28;20048;-71
2024/04/07 04:25:52;;;;;;;8.85;6.38;;;;;;;-140.33;100.00;61596.09;4991978;28;20030;-70
2024/04/07 04:28:18;;;;;;;7.63;5.95;;;;;;;-140.33;100.00;61596.09;4990691;28;20029;-71
2024/04/07 04:30:54;;;;;;;8.13;6.18;;;;;;;-140.33;100.00;61596.09;4989933;28;20077;-71
2024/04/07 04:33:25;;;;;;;8.52;5.95;;;;;;;-140.33;100.00;61596.09;4989398;28;20093;-70
2024/04/07 04:35:52;;;;;;;9.95;8.35;;;;;;;-140.33;100.00;61596.09;4991572;28;20089;-70
2024/04/07 04:38:18;;;;;;;15.77;9.68;;;;;;;-140.33;100.00;61596.09;4989759;28;20026;-70
2024/04/07 04:40:58;;;;;;;15.52;8.90;;;;;;;-140.33;100.00;61596.09;4989996;28;20072;-72
2024/04/07 04:43:25;;;;;;;10.30;6.82;;;;;;;-140.33;100.00;61596.09;4991614;28;20559;-70
2024/04/07 04:46:13;;;;;;;6.90;5.88;;;;;;;-140.33;100.00;61596.09;4988295;28;20038;-69
2024/04/07 04:48:39;;;;;;;11.27;9.68;;;;;;;-140.33;100.00;61596.09;4989860;28;20030;-71
2024/04/07 04:51:04;;;;;;;8.90;7.28;;;;;;;-140.33;100.00;61596.09;4990654;28;20062;-70
2024/04/07 04:53:30;;;;;;;8.55;7.63;;;;;;;-140.33;100.00;61596.09;4990784;28;20058;-70
2024/04/07 04:56:01;;;;;;;7.88;5.78;;;;;;;-140.33;100.00;61596.09;4990623;28;20039;-69
2024/04/07 04:58:27;;;;;;;8.50;7.43;;;;;;;-140.33;100.00;61596.09;4989175;28;20057;-72
2024/04/07 05:00:53;;;;;;;9.70;8.80;;;;;;;-140.33;100.00;61596.09;4988587;28;20041;-72
2024/04/07 05:03:19;;;;;;;6.55;5.95;;;;;;;-140.33;100.00;61596.09;4989689;28;20034;-70
2024/04/07 05:05:44;;;;;;;6.68;5.50;;;;;;;-140.33;100.00;61596.09;4992264;28;20130;-70
2024/04/07 05:08:09;;;;;;;20.98;12.18;;;;;;;-140.33;100.00;61596.09;4989668;28;20131;-70
2024/04/07 05:10:35;;;;;;;16.83;11.13;;;;;;;-140.33;100.00;61596.09;4991048;28;21688;-70
2024/04/07 05:13:00;;;;;;;6.03;4.65;;;;;;;-140.33;100.00;61596.09;4989579;28;20038;-70
2024/04/07 05:15:26;;;;;;;6.75;4.95;;;;;;;-140.33;100.00;61596.09;4990784;28;20034;-71
2024/04/07 05:17:53;;;;;;;5.78;4.43;;;;;;;-140.33;100.00;61596.09;4989510;28;20037;-70
2024/04/07 05:20:18;;;;;;;5.18;4.10;;;;;;;-140.33;100.00;61596.09;4990235;28;20057;-70
2024/04/07 05:22:44;;;;;;;5.53;3.38;;;;;;;-140.33;100.00;61596.09;4991054;28;20039;-70
2024/04/07 05:25:11;;;;;;;4.25;3.00;;;;;;;-140.33;100.00;61596.09;4990818;28;20477;-72
2024/04/07 05:27:37;;;;;;;3.58;2.75;;;;;;;-140.33;100.00;61596.09;4990488;28;20034;-70
2024/04/07 05:30:04;;;;;;;5.13;3.72;;;;;;;-140.33;100.00;61596.09;4990317;28;20046;-71
2024/04/07 05:32:30;;;;;;;4.38;3.58;;;;;;;-140.33;100.00;61596.09;4990074;28;20132;-70
2024/04/07 05:34:55;;;;;;;6.05;4.47;;;;;;;-140.33;100.00;61596.09;4990090;28;20412;-71
2024/04/07 05:37:21;;;;;;;7.07;5.57;;;;;;;-140.33;100.00;61596.09;4989795;28;20034;-70
2024/04/07 05:39:51;;;;;;;5.63;3.53;;;;;;;-140.33;100.00;61596.09;4988912;28;20440;-70
2024/04/07 05:42:19;;;;;;;6.45;4.10;;;;;;;-140.33;100.00;61596.09;4990403;28;20072;-70
2024/04/07 05:44:47;;;;;;;6.70;4.03;;;;;;;-140.33;100.00;61596.09;4989953;28;20045;-70
2024/04/07 05:47:14;;;;;;;12.57;5.15;;;;;;;-140.33;100.00;61596.09;4988937;28;20038;-70
2024/04/07 05:49:45;;;;;;;4.82;3.15;;;;;;;-140.33;100.00;61596.09;4988930;28;20132;-73
2024/04/07 05:52:11;;;;;;;3.10;2.20;;;;;;;-140.33;100.00;61596.09;4989883;28;20515;-71
2024/04/07 05:54:36;;;;;;;3.17;2.05;;;;;;;-140.33;100.00;61596.09;4990019;28;20031;-70
2024/04/07 05:57:02;;;;;;;2.35;1.70;;;;;;;-140.33;100.00;61596.09;4998465;28;20059;-70
2024/04/07 05:59:28;;;;;;;2.83;2.40;;;;;;;-140.33;100.00;61596.09;5028816;28;20443;-70
2024/04/07 06:01:53;;;;;;;4.22;2.47;;;;;;;-140.33;100.00;61596.09;5011444;28;20087;-71
2024/04/07 06:04:19;;;;;;;3.60;1.13;;;;;;;-140.33;100.00;61596.09;5029428;28;20158;-70
2024/04/07 06:06:44;;;;;;;2.05;1.40;;;;;;;-140.33;100.00;61596.09;5029202;28;20411;-70
2024/04/07 06:09:10;;;;;;;1.60;1.10;;;;;;;-140.33;100.00;61596.09;5028341;28;20033;-71
2024/04/07 06:11:36;;;;;;;3.30;1.08;;;;;;;-140.33;100.00;61596.09;5029095;28;20037;-71
2024/04/07 06:14:03;;;;;;;1.50;1.10;;;;;;;-140.33;100.00;61596.09;5028994;28;20040;-71
2024/04/07 06:16:29;;;;;;;2.50;0.98;;;;;;;-140.33;100.00;61596.09;5011260;28;20029;-71
2024/04/07 06:18:55;;;;;;;2.10;0.98;;;;;;;-140.33;100.00;61596.09;5028911;28;20040;-70
2024/04/07 06:21:23;;;;;;;2.17;1.00;;;;;;;-140.33;100.00;61596.09;5028408;28;20415;-71
2024/04/07 06:23:49;;;;;;;1.77;1.10;;;;;;;20.25;100.00;101602.41;5029008;28;20026;-70
2024/04/07 06:26:14;;;;;;;1.70;1.05;;;;;;;20.19;100.00;102375.97;5011006;28;20033;-74
2024/04/07 06:28:40;;;;;;;1.23;0.93;;;;;;;-140.33;100.00;61596.09;5011301;28;20025;-71
2024/04/07 06:31:05;;;;;;;4.60;0.90;;;;;;;19.96;100.00;101714.63;5029125;28;20033;-72
2024/04/07 06:33:31;;;;;;;5.43;1.25;;;;;;;20.87;100.00;102261.81;5028979;28;20034;-71
2024/04/07 06:35:58;;;;;;;2.35;0.95;;;;;;;20.28;100.00;102165.56;5009805;28;20487;-73
2024/04/07 06:38:24;;;;;;;1.20;1.00;;;;;;;20.25;100.00;101683.34;5028547;28;20033;-73
2024/04/07 06:40:50;;;;;;;2.63;1.10;;;;;;;21.23;100.00;101497.16;5028324;28;20037;-76
2024/04/07 06:43:16;;;;;;;2.53;1.25;;;;;;;19.89;100.00;101435.16;5029353;28;20033;-71
2024/04/07 06:45:41;;;;;;;1.85;1.20;;;;;;;20.81;100.00;101468.09;5010475;28;20060;-72
2024/04/07 06:48:07;;;;;;;2.08;1.15;;;;;;;20.94;100.00;101289.00;5028691;28;20036;-71
2024/04/07 06:50:32;;;;;;;2.08;1.30;;;;;;;20.30;100.00;101042.44;5027406;28;20071;-73
2024/04/07 06:52:58;;;;;;;3.65;1.40;;;;;;;20.78;100.00;101026.94;5010001;28;20094;-71
2024/04/07 06:55:23;;;;;;;2.35;1.70;;;;;;;19.93;100.00;100867.84;5010876;28;20412;-71
2024/04/07 06:57:49;;;;;;;3.17;1.67;;;;;;;20.11;100.00;100982.25;5028239;28;20114;-71
2024/04/07 07:00:25;;;;;;;3.35;1.58;;;;;;;21.31;100.00;100874.81;5010701;28;20095;-77
2024/04/07 07:02:52;;;;;;;3.20;1.60;;;;;;;20.83;100.00;100854.31;5027160;28;20136;-71
2024/04/07 07:05:17;;;;;;;4.10;1.50;;;;;;;20.21;100.00;100802.69;5010416;28;20523;-70
2024/04/07 07:07:42;;;;;;;4.65;1.42;;;;;;;19.86;100.00;100755.50;5028718;28;20057;-75
2024/04/07 07:10:11;;;;;;;1.83;1.35;;;;;;;20.34;100.00;100843.25;5011034;28;20039;-69
2024/04/07 07:12:36;;;;;;;4.22;1.70;;;;;;;20.98;100.00;100725.91;5028040;28;20108;-69
2024/04/07 07:15:03;;;;;;;2.90;1.50;;;;;;;20.62;100.00;100852.91;5028292;28;20109;-71
2024/04/07 07:17:28;;;;;;;4.20;1.40;;;;;;;20.26;100.00;100798.13;5028682;28;20385;-69
2024/04/07 07:19:54;;;;;;;2.40;1.55;;;;;;;20.99;100.00;100838.78;5028093;28;20044;-70
2024/04/07 07:22:19;;;;;;;3.97;1.40;;;;;;;21.06;100.00;100820.25;5027905;28;20025;-69
2024/04/07 07:24:45;;;;;;;3.22;1.60;;;;;;;20.16;100.00;100706.53;5028466;28;20034;-69
2024/04/07 07:27:10;;;;;;;2.15;1.50;;;;;;;20.88;100.00;100768.75;5010188;28;20496;-71
2024/04/07 07:29:36;;;;;;;2.60;1.50;;;;;;;21.46;100.00;100835.13;5028259;28;20034;-69
2024/04/07 07:32:02;;;;;;;2.95;1.52;;;;;;;20.96;100.00;100779.47;5028400;28;20026;-70
2024/04/07 07:34:27;;;;;;;4.00;1.50;;;;;;;20.91;100.00;100854.72;5010303;28;20026;-72
2024/04/07 07:36:53;;;;;;;2.78;1.30;;;;;;;21.35;100.00;100805.63;5030617;28;20410;-71
2024/04/07 07:39:19;;;;;;;2.70;1.55;;;;;;;21.45;100.00;100780.88;5028818;28;20132;-70
2024/04/07 07:41:44;;;;;;;3.65;1.40;;;;;;;20.55;100.00;100722.41;5013336;28;20125;-71
2024/04/07 07:44:10;;;;;;;3.55;1.50;;;;;;;21.00;100.00;100781.78;5031796;28;20067;-70
2024/04/07 07:46:35;;;;;;;3.05;1.58;;;;;;;21.41;100.00;100769.06;5031269;28;20467;-69
2024/04/07 07:49:01;;;;;;;2.35;1.50;;;;;;;21.36;100.00;100781.41;5031475;28;20412;-70
2024/04/07 07:51:26;;;;;;;2.63;1.23;;;;;;;21.20;100.00;100633.19;5013585;28;20059;-70
2024/04/07 07:53:52;;;;;;;4.45;1.55;;;;;;;21.85;100.00;100725.75;5031444;28;20029;-70
2024/04/07 07:56:19;;;;;;;2.10;1.38;;;;;;;21.55;100.00;100735.41;5013494;28;20120;-71
2024/04/07 07:58:45;;;;;;;2.50;1.20;;;;;;;21.79;100.00;100714.94;5031132;28;20053;-71
2024/04/07 08:01:10;;;;;;;4.45;1.40;;;;;;;21.41;100.00;100699.19;5031673;28;20155;-70
2024/04/07 08:03:36;;;;;;;1.80;1.30;;;;;;;21.37;100.00;100636.41;5030768;28;20416;-71
2024/04/07 08:06:01;;;;;;;5.03;1.55;;;;;;;21.63;100.00;100691.72;5031446;28;20033;-72
2024/04/07 08:08:27;;;;;;;4.00;1.40;;;;;;;21.60;100.00;100720.41;5013602;28;20037;-70
2024/04/07 08:10:53;;;;;;;2.25;1.30;;;;;;;21.64;100.00;100695.16;5030740;28;20491;-70
2024/04/07 08:13:18;;;;;;;2.88;1.55;;;;;;;21.84;100.00;100687.03;5013754;28;20026;-70
2024/04/07 08:15:44;;;;;;;2.92;1.58;;;;;;;22.47;100.00;100584.38;5030731;28;20052;-70
2024/04/07 08:18:11;;;;;;;3.88;1.38;;;;;;;22.76;100.00;100655.88;5030807;28;20064;-70
2024/04/07 08:20:37;;;;;;;3.28;1.40;;;;;;;22.27;100.00;100628.91;5031225;28;20041;-69
2024/04/07 08:23:12;;;;;;;3.55;1.80;;;;;;;22.78;100.00;100624.66;5031158;28;20063;-69
2024/04/07 08:25:38;;;;;;;2.95;1.45;;;;;;;22.21;100.00;100560.22;5030833;28;20139;-73
2024/04/07 08:28:07;;;;;;;3.50;1.60;;;;;;;22.61;100.00;100480.59;5031722;28;20109;-69
2024/04/07 08:30:32;;;;;;;3.00;1.50;;;;;;;22.76;100.00;100522.81;5031207;28;20029;-70
2024/04/07 08:33:03;;;;;;;3.03;1.92;;;;;;;22.27;100.00;100631.50;5013100;28;20033;-70
2024/04/07 08:35:28;;;;;;;2.77;1.70;;;;;;;22.46;100.00;100647.53;5030629;28;20087;-69
2024/04/07 08:37:54;;;;;;;4.22;1.40;;;;;;;22.48;100.00;100621.50;5030753;28;20782;-70
2024/04/07 08:40:19;;;;;;;1.55;1.02;;;;;;;22.32;100.00;100669.16;5013229;28;20037;-69
2024/04/07 08:42:46;;;;;;;3.13;1.92;;;;;;;22.92;100.00;100715.31;5030559;28;20026;-69
2024/04/07 08:45:11;;;;;;;3.10;1.70;;;;;;;22.78;100.00;100677.34;5013083;28;20039;-69
2024/04/07 08:47:38;;;;;;;5.93;2.30;;;;;;;23.56;100.00;100556.81;5029375;28;20033;-69
2024/04/07 08:50:07;;;;;;;2.38;1.42;;;;;;;22.73;100.00;100536.81;5030521;28;20033;-69
2024/04/07 08:52:33;;;;;;;4.18;1.65;;;;;;;23.54;100.00;100466.97;5030979;28;20494;-68
2024/04/07 08:54:59;;;;;;;3.78;1.58;;;;;;;23.43;100.00;100498.94;5029910;28;20033;-70
2024/04/07 08:57:24;;;;;;;8.43;1.80;;;;;;;23.69;100.00;100547.19;5026920;28;20053;-69
2024/04/07 08:59:51;;;;;;;5.50;1.90;;;;;;;22.10;100.00;100595.53;5030235;28;20041;-69
2024/04/07 09:02:17;;;;;;;3.17;1.50;;;;;;;23.19;100.00;100587.13;5012145;28;20021;-70
2024/04/07 09:04:43;;;;;;;3.38;1.67;;;;;;;23.21;100.00;100803.25;5029870;28;20375;-69
2024/04/07 09:07:10;;;;;;;2.63;1.88;;;;;;;23.58;100.00;100848.38;5011875;28;20028;-70
2024/04/07 09:09:36;;;;;;;3.42;1.50;;;;;;;22.04;100.00;100778.09;5030398;28;20075;-71
2024/04/07 09:12:03;;;;;;;2.78;1.48;;;;;;;23.37;100.00;100942.44;5012469;28;20524;-72
2024/04/07 09:14:34;;;;;;;2.97;1.55;;;;;;;24.25;100.00;100818.56;5012437;28;20120;-71
2024/04/07 09:17:09;;;;;;;2.92;1.88;;;;;;;23.50;100.00;100962.31;5011417;28;20041;-71
2024/04/07 09:19:36;;;;;;;2.10;1.45;;;;;;;23.75;100.00;100863.63;5024823;28;20040;-71
2024/04/07 09:22:03;;;;;;;6.30;1.80;;;;;;;22.86;100.00;100887.75;5011849;28;20143;-71
2024/04/07 09:24:30;;;;;;;2.83;1.73;;;;;;;23.57;100.00;100836.31;5030320;28;20102;-70
2024/04/07 09:27:00;;;;;;;2.53;1.65;;;;;;;24.17;100.00;100867.66;5030076;28;20025;-72
2024/04/07 09:29:29;;;;;;;2.72;1.40;;;;;;;23.63;100.00;100854.06;5010076;28;20037;-74
2024/04/07 09:31:56;;;;;;;4.43;1.88;;;;;;;25.21;100.00;100791.53;5011812;28;20032;-75
2024/04/07 09:34:22;;;;;;;2.53;1.40;;;;;;;24.61;100.00;100887.94;5029325;28;20041;-71
2024/04/07 09:36:54;;;;;;;2.83;1.55;;;;;;;23.91;100.00;100924.00;5029817;28;20043;-71
2024/04/07 09:39:20;;;;;;;2.38;1.40;;;;;;;22.04;100.00;100904.19;5029106;28;20037;-71
2024/04/07 09:41:47;;;;;;;3.95;1.85;;;;;;;22.04;100.00;101005.22;5029158;28;20083;-71
2024/04/07 09:44:18;;;;;;;4.18;2.08;;;;;;;21.53;100.00;101003.84;5012014;28;20037;-71
2024/04/07 09:46:45;;;;;;;2.35;1.55;;;;;;;21.01;100.00;101067.97;5029504;28;20033;-71
2024/04/07 09:49:11;;;;;;;3.95;1.20;;;;;;;19.47;100.00;101052.53;5010097;28;20490;-68
2024/04/07 09:51:48;;;;;;;4.70;1.52;;;;;;;20.81;100.00;101059.56;5028901;28;20116;-71
2024/04/07 09:54:19;;;;;;;3.58;1.50;;;;;;;21.81;100.00;100979.84;5028940;28;20068;-74
2024/04/07 09:56:45;;;;;;;2.72;1.50;;;;;;;22.20;100.00;100931.69;5029229;28;20025;-71
2024/04/07 09:59:12;;;;;;;3.25;1.70;;;;;;;23.29;100.00;100902.19;5028803;28;20056;-69
2024/04/07 10:01:38;;;;;;;2.08;1.30;;;;;;;23.95;100.00;100873.50;5028820;28;20033;-70
2024/04/07 10:04:04;;;;;;;2.30;1.10;;;;;;;23.02;100.00;100937.72;5029016;28;20609;-69
2024/04/07 10:06:31;;;;;;;2.47;1.30;;;;;;;23.88;100.00;100877.47;5028944;28;20079;-69
2024/04/07 10:08:58;;;;;;;2.70;1.30;;;;;;;24.64;100.00;100843.50;5028851;28;20045;-72
2024/04/07 10:11:24;;;;;;;3.10;1.45;;;;;;;24.50;100.00;100851.47;5029097;28;20029;-69
2024/04/07 10:13:49;;;;;;;2.90;1.20;;;;;;;24.78;100.00;100857.19;5028105;28;20033;-70
2024/04/07 10:16:15;;;;;;;2.65;1.30;;;;;;;22.47;100.00;100973.22;5029177;28;20495;-72
2024/04/07 10:18:42;;;;;;;3.15;1.23;;;;;;;22.63;100.00;100947.19;5012216;28;20156;-71
2024/04/07 10:21:09;;;;;;;2.50;1.25;;;;;;;22.22;100.00;100973.84;5015609;28;20112;-70
2024/04/07 10:23:36;;;;;;;3.20;1.33;;;;;;;21.24;100.00;100805.41;5028839;28;20407;-71
2024/04/07 10:26:06;;;;;;;4.13;1.30;;;;;;;22.59;100.00;100920.63;5029144;28;20036;-70
2024/04/07 10:28:56;;;;;;;2.28;1.50;;;;;;;22.74;100.00;100909.28;5028724;28;20029;-75
2024/04/07 10:31:32;;;;;;;2.92;1.30;;;;;;;23.14;100.00;100846.13;5029252;28;20029;-69
2024/04/07 10:33:58;;;;;;;6.32;1.60;;;;;;;24.00;100.00;100834.19;5028759;28;20026;-70
2024/04/07 10:36:25;;;;;;;2.55;1.40;;;;;;;22.87;100.00;100898.97;5028476;28;20082;-70
2024/04/07 10:38:57;;;;;;;3.17;1.33;;;;;;;22.26;100.00;100809.47;5028989;28;20034;-69
2024/04/07 10:41:27;;;;;;;3.20;1.60;;;;;;;22.12;100.00;100907.97;5027973;28;20029;-70
2024/04/07 10:43:53;;;;;;;3.50;1.50;;;;;;;22.03;100.00;100791.97;5010716;28;20025;-70
2024/04/07 10:46:20;;;;;;;2.53;1.70;;;;;;;22.90;100.00;100863.28;5028935;28;20036;-71
2024/04/07 10:48:46;;;;;;;2.70;1.60;;;;;;;24.19;100.00;100811.19;5027379;28;20022;-70
2024/04/07 10:51:13;;;;;;;2.35;1.30;;;;;;;24.52;100.00;100810.56;5028616;28;20496;-70
2024/04/07 10:53:41;;;;;;;1.83;1.10;;;;;;;23.17;100.00;100762.06;5028595;28;20022;-71
2024/04/07 10:56:07;;;;;;;6.50;1.38;;;;;;;23.88;100.00;100864.47;5027946;28;20037;-74
2024/04/07 10:58:41;;;;;;;3.38;1.10;;;;;;;22.53;100.00;100852.72;5028754;28;20038;-71
2024/04/07 11:01:07;;;;;;;2.38;1.45;;;;;;;23.01;100.00;100850.47;5028155;28;20499;-71
2024/04/07 11:03:36;;;;;;;3.63;1.50;;;;;;;23.90;100.00;100744.84;5011183;28;20032;-72
2024/04/07 11:06:02;;;;;;;1.45;0.98;;;;;;;24.33;100.00;100701.84;5009705;28;20450;-72
2024/04/07 11:08:28;;;;;;;2.25;0.95;;;;;;;24.85;100.00;100839.34;5027833;28;20120;-71
2024/04/07 11:11:02;;;;;;;2.17;1.08;;;;;;;23.65;100.00;100904.16;5012604;28;20482;-73
2024/04/07 11:13:28;;;;;;;1.90;1.10;;;;;;;24.22;100.00;100828.34;5032231;28;20487;-71
2024/04/07 11:15:54;;;;;;;3.47;1.40;;;;;;;24.82;100.00;100782.31;5032309;28;20029;-72
2024/04/07 11:18:21;;;;;;;2.80;1.13;;;;;;;24.40;100.00;100830.50;5014837;28;21409;-71
2024/04/07 11:20:48;;;;;;;1.77;0.90;;;;;;;22.08;100.00;100857.28;5030742;28;20045;-71